createdAt,value
2018-12-12T00:02:18.358Z,1.97
2018-12-12T00:07:23.540Z,2.60
2018-12-12T00:12:26.473Z,2.20
2018-12-12T00:17:29.415Z,2.33
2018-12-12T00:22:34.176Z,2.03
2018-12-12T00:27:36.932Z,2.07
2018-12-12T00:32:39.823Z,2.30
2018-12-12T00:37:42.561Z,2.00
2018-12-12T00:42:45.297Z,2.10
2018-12-12T00:47:48.064Z,2.17
2018-12-12T00:52:50.990Z,2.20
2018-12-12T00:57:53.935Z,2.23
2018-12-12T01:02:56.841Z,2.30
2018-12-12T01:07:59.730Z,2.10
2018-12-12T01:13:02.404Z,1.90
2018-12-12T01:18:05.423Z,2.30
2018-12-12T01:23:08.276Z,2.57
2018-12-12T01:28:10.917Z,2.67
2018-12-12T01:33:13.739Z,2.60
2018-12-12T01:38:16.383Z,2.30
2018-12-12T01:43:19.163Z,2.50
2018-12-12T01:48:22.159Z,2.67
2018-12-12T01:53:25.048Z,2.80
2018-12-12T01:58:27.579Z,2.50
2018-12-12T02:03:30.436Z,2.80
2018-12-12T02:08:33.305Z,2.83
2018-12-12T02:13:36.734Z,3.10
2018-12-12T02:18:42.328Z,2.90
2018-12-12T02:23:45.101Z,2.93
2018-12-12T02:28:47.988Z,2.60
2018-12-12T02:33:51.090Z,2.50
2018-12-12T02:38:53.944Z,3.43
2018-12-12T02:43:56.973Z,3.40
2018-12-12T02:49:00.003Z,3.47
2018-12-12T02:54:02.870Z,3.30
2018-12-12T02:59:05.772Z,3.27
2018-12-12T03:04:08.604Z,3.13
2018-12-12T03:09:11.578Z,3.63
2018-12-12T03:14:14.457Z,3.67
2018-12-12T03:19:18.306Z,3.40
2018-12-12T03:24:20.977Z,4.03
2018-12-12T03:29:23.737Z,3.47
2018-12-12T03:34:26.813Z,3.60
2018-12-12T03:39:30.030Z,3.70
2018-12-12T03:44:32.801Z,3.57
2018-12-12T03:49:35.542Z,4.53
2018-12-12T03:54:38.264Z,4.67
2018-12-12T03:59:40.995Z,5.10
2018-12-12T04:04:43.867Z,4.97
2018-12-12T04:09:46.597Z,4.50
2018-12-12T04:14:49.188Z,4.50
2018-12-12T04:19:51.883Z,4.90
2018-12-12T04:24:55.117Z,5.27
2018-12-12T04:29:57.732Z,5.27
2018-12-12T04:35:00.892Z,5.20
2018-12-12T04:40:05.395Z,4.97
2018-12-12T04:45:08.392Z,5.30
2018-12-12T04:50:11.256Z,5.33
2018-12-12T04:55:14.106Z,5.27
2018-12-12T05:00:16.943Z,5.20
2018-12-12T05:05:19.814Z,6.10
2018-12-12T05:10:22.786Z,5.90
2018-12-12T05:15:25.710Z,6.43
2018-12-12T05:20:28.495Z,6.73
2018-12-12T05:25:31.408Z,6.70
2018-12-12T05:30:34.783Z,8.23
2018-12-12T05:35:37.904Z,10.43
2018-12-12T05:40:41.140Z,10.60
2018-12-12T05:45:44.083Z,10.00
2018-12-12T05:50:46.865Z,10.67
2018-12-12T05:55:49.536Z,10.03
2018-12-12T06:00:52.301Z,10.60
2018-12-12T06:05:55.040Z,9.00
2018-12-12T06:10:57.728Z,8.47
2018-12-12T06:16:00.353Z,7.73
2018-12-12T06:21:03.183Z,7.50
2018-12-12T06:26:06.159Z,7.47
2018-12-12T06:31:09.271Z,6.90
2018-12-12T06:36:12.133Z,6.93
2018-12-12T06:41:15.193Z,6.87
2018-12-12T06:46:19.287Z,6.50
2018-12-12T06:51:22.204Z,6.47
2018-12-12T06:56:25.175Z,6.43
2018-12-12T07:01:28.203Z,6.80
2018-12-12T07:06:31.054Z,6.43
2018-12-12T07:11:33.916Z,7.30
2018-12-12T07:16:36.804Z,7.00
2018-12-12T07:21:39.888Z,6.87
2018-12-12T07:26:43.536Z,7.50
2018-12-12T07:31:46.528Z,7.40
2018-12-12T07:36:49.463Z,7.53
2018-12-12T07:41:52.285Z,7.53
2018-12-12T07:46:57.616Z,6.63
2018-12-12T07:52:02.460Z,7.33
2018-12-12T07:57:05.441Z,7.73
2018-12-12T08:02:08.497Z,7.43
2018-12-12T08:07:11.506Z,12.00
2018-12-12T08:12:14.421Z,8.07
2018-12-12T08:17:17.240Z,9.07
2018-12-12T08:22:20.185Z,12.63
2018-12-12T08:27:23.325Z,8.23
2018-12-12T08:32:26.279Z,8.10
2018-12-12T08:37:29.254Z,7.90
2018-12-12T08:42:32.061Z,7.77
2018-12-12T08:47:34.749Z,7.37
2018-12-12T08:52:38.753Z,7.23
2018-12-12T08:57:41.524Z,7.53
2018-12-12T09:02:44.504Z,7.43
2018-12-12T09:07:47.456Z,7.73
2018-12-12T09:12:50.209Z,7.40
2018-12-12T09:17:52.924Z,7.90
2018-12-12T09:22:55.660Z,5.57
2018-12-12T09:27:58.564Z,6.00
2018-12-12T09:33:03.504Z,5.27
2018-12-12T09:38:12.346Z,6.60
2018-12-12T09:43:15.097Z,6.23
2018-12-12T09:48:19.714Z,6.60
2018-12-12T09:53:22.992Z,6.03
2018-12-12T09:58:25.842Z,5.47
2018-12-12T10:03:31.270Z,5.50
2018-12-12T10:08:33.666Z,6.07
2018-12-12T10:13:36.545Z,5.17
2018-12-12T10:18:39.748Z,4.57
2018-12-12T10:23:42.608Z,4.60
2018-12-12T10:28:45.374Z,5.07
2018-12-12T10:33:48.525Z,5.30
2018-12-12T10:38:51.393Z,4.93
2018-12-12T10:43:54.312Z,4.03
2018-12-12T10:48:57.964Z,4.20
2018-12-12T10:54:00.949Z,4.60
2018-12-12T10:59:03.763Z,3.90
2018-12-12T11:04:08.019Z,4.60
2018-12-12T11:09:11.100Z,4.07
2018-12-12T11:14:13.827Z,3.30
2018-12-12T11:19:16.412Z,3.50
2018-12-12T11:24:19.061Z,3.90
2018-12-12T11:29:21.928Z,4.30
2018-12-12T11:34:24.696Z,4.27
2018-12-12T11:39:27.507Z,5.57
2018-12-12T11:44:30.352Z,6.10
2018-12-12T11:49:32.977Z,7.50
2018-12-12T11:54:35.966Z,5.80
2018-12-12T11:59:38.609Z,6.43
2018-12-12T12:04:41.512Z,5.87
2018-12-12T12:09:44.297Z,5.60
2018-12-12T12:14:47.253Z,6.10
2018-12-12T12:19:50.229Z,6.10
2018-12-12T12:24:53.107Z,6.37
2018-12-12T12:29:56.042Z,6.30
2018-12-12T12:35:00.143Z,5.87
2018-12-12T12:40:05.810Z,6.17
2018-12-12T12:45:08.792Z,6.03
2018-12-12T12:50:11.656Z,6.40
2018-12-12T12:55:15.611Z,5.57
2018-12-12T13:00:18.300Z,5.97
2018-12-12T13:05:21.253Z,6.43
2018-12-12T13:10:24.241Z,8.20
2018-12-12T13:15:27.350Z,6.27
2018-12-12T13:20:30.214Z,5.83
2018-12-12T13:25:33.238Z,5.83
2018-12-12T13:30:36.263Z,6.40
2018-12-12T13:35:39.043Z,6.20
2018-12-12T13:40:41.864Z,6.93
2018-12-12T13:45:44.950Z,6.77
2018-12-12T13:50:47.857Z,8.60
2018-12-12T13:55:50.794Z,8.37
2018-12-12T14:00:55.478Z,8.37
2018-12-12T14:05:58.472Z,8.20
2018-12-12T14:11:01.697Z,8.27
2018-12-12T14:16:05.006Z,8.03
2018-12-12T14:21:07.957Z,8.93
2018-12-12T14:26:10.987Z,8.30
2018-12-12T14:31:13.943Z,8.03
2018-12-12T14:36:16.780Z,9.13
2018-12-12T14:41:19.547Z,8.37
2018-12-12T14:46:22.381Z,9.43
2018-12-12T14:51:25.141Z,9.80
2018-12-12T14:56:28.225Z,10.13
2018-12-12T15:01:32.095Z,10.37
2018-12-12T15:06:35.011Z,11.13
2018-12-12T15:11:37.972Z,10.70
2018-12-12T15:16:40.861Z,10.73
2018-12-12T15:21:43.728Z,10.27
2018-12-12T15:26:46.516Z,10.07
2018-12-12T15:31:49.427Z,9.80
2018-12-12T15:36:52.317Z,10.43
2018-12-12T15:41:55.762Z,10.17
2018-12-12T15:46:58.597Z,10.67
2018-12-12T15:52:01.405Z,10.80
2018-12-12T15:57:04.299Z,15.63
2018-12-12T16:02:07.266Z,11.20
2018-12-12T16:07:10.363Z,11.10
2018-12-12T16:12:13.525Z,10.60
2018-12-12T16:17:16.558Z,11.13
2018-12-12T16:22:19.373Z,10.90
2018-12-12T16:27:22.376Z,11.83
2018-12-12T16:32:25.328Z,11.93
2018-12-12T16:37:28.148Z,12.40
2018-12-12T16:42:31.104Z,13.57
2018-12-12T16:47:35.921Z,12.93
2018-12-12T16:52:38.698Z,12.43
2018-12-12T16:57:41.381Z,12.70
2018-12-12T17:02:44.289Z,12.57
2018-12-12T17:07:47.231Z,12.30
2018-12-12T17:12:50.257Z,13.40
2018-12-12T17:17:53.288Z,14.73
2018-12-12T17:22:56.040Z,13.00
2018-12-12T17:27:58.762Z,13.70
2018-12-12T17:33:01.751Z,13.23
2018-12-12T17:38:04.894Z,12.90
2018-12-12T17:43:07.823Z,13.30
2018-12-12T17:48:10.706Z,13.13
2018-12-12T17:53:14.021Z,12.07
2018-12-12T17:58:16.916Z,12.57
2018-12-12T18:03:21.258Z,12.70
2018-12-12T18:08:43.850Z,12.10
2018-12-12T18:13:46.912Z,13.33
2018-12-12T18:18:51.875Z,13.23
2018-12-12T18:23:54.847Z,13.37
2018-12-12T18:28:57.651Z,12.90
2018-12-12T18:34:00.620Z,13.77
2018-12-12T18:39:07.059Z,13.50
2018-12-12T18:44:11.754Z,12.90
2018-12-12T18:49:14.597Z,13.17
2018-12-12T18:54:19.587Z,13.03
2018-12-12T18:59:24.486Z,13.70
2018-12-12T19:04:27.449Z,13.90
2018-12-12T19:14:48.526Z,13.37
2018-12-12T19:19:52.303Z,13.77
2018-12-12T19:24:55.203Z,13.97
2018-12-12T19:29:58.044Z,13.73
2018-12-12T19:35:00.961Z,13.43
2018-12-12T19:40:04.910Z,28.13
2018-12-12T19:45:08.225Z,14.40
2018-12-12T19:50:11.308Z,13.93
2018-12-12T19:55:14.341Z,14.43
2018-12-12T20:00:17.121Z,15.03
2018-12-12T20:05:19.929Z,13.93
2018-12-12T20:10:22.882Z,13.87
2018-12-12T20:15:31.902Z,13.93
2018-12-12T20:20:34.683Z,14.07
2018-12-12T20:25:37.447Z,14.40
2018-12-12T20:30:40.743Z,17.13
2018-12-12T20:35:47.926Z,14.10
2018-12-12T20:40:48.516Z,14.87
2018-12-12T20:45:51.562Z,14.80
2018-12-12T20:50:54.444Z,14.37
2018-12-12T20:55:57.384Z,14.57
2018-12-12T21:01:01.475Z,14.97
2018-12-12T21:06:05.854Z,14.47
2018-12-12T21:11:09.048Z,16.43
2018-12-12T21:16:12.823Z,15.07
2018-12-12T21:21:15.810Z,15.73
2018-12-12T21:26:19.499Z,15.63
2018-12-12T21:31:22.346Z,15.77
2018-12-12T21:41:38.291Z,15.13
2018-12-12T21:46:42.721Z,16.63
2018-12-12T21:51:45.873Z,15.77
2018-12-12T21:56:48.493Z,17.40
2018-12-12T22:07:04.291Z,16.90
2018-12-12T22:12:07.212Z,16.17
2018-12-12T22:17:10.405Z,15.37
2018-12-12T22:22:14.251Z,12.43
2018-12-12T22:27:17.043Z,13.43
2018-12-12T22:32:19.852Z,11.43
2018-12-12T22:37:22.766Z,11.37
2018-12-12T22:42:25.516Z,12.57
2018-12-12T22:47:28.255Z,12.27
2018-12-12T22:52:31.047Z,10.77
2018-12-12T22:57:33.998Z,9.43
2018-12-12T23:02:36.948Z,10.27
2018-12-12T23:07:39.869Z,9.73
2018-12-12T23:12:42.889Z,10.27
2018-12-12T23:17:45.666Z,9.97
2018-12-12T23:22:49.609Z,9.53
2018-12-12T23:27:53.309Z,11.70
2018-12-12T23:32:56.236Z,12.23
2018-12-12T23:37:58.888Z,13.00
2018-12-12T23:43:01.706Z,13.80
2018-12-12T23:48:04.885Z,13.13
2018-12-12T23:53:07.681Z,13.93
2018-12-12T23:58:10.283Z,16.73
